sensor_id;sensor_type;location;lat;lon;timestamp;temperature;humidity
21734;DHT22;11029;47.820;10.534;2023-11-18T00:00:23;2.10;89.60
21734;DHT22;11029;47.820;10.534;2023-11-18T00:03:09;2.00;89.90
21734;DHT22;11029;47.820;10.534;2023-11-18T00:05:55;2.00;89.80
21734;DHT22;11029;47.820;10.534;2023-11-18T00:08:41;2.10;90.30
21734;DHT22;11029;47.820;10.534;2023-11-18T00:11:26;2.00;89.90
21734;DHT22;11029;47.820;10.534;2023-11-18T00:14:12;2.00;90.00
21734;DHT22;11029;47.820;10.534;2023-11-18T00:16:58;2.00;90.20
21734;DHT22;11029;47.820;10.534;2023-11-18T00:19:44;1.90;90.30
21734;DHT22;11029;47.820;10.534;2023-11-18T00:22:30;1.90;90.60
21734;DHT22;11029;47.820;10.534;2023-11-18T00:25:15;1.90;90.80
21734;DHT22;11029;47.820;10.534;2023-11-18T00:28:01;1.90;90.70
21734;DHT22;11029;47.820;10.534;2023-11-18T00:30:47;1.90;90.80
21734;DHT22;11029;47.820;10.534;2023-11-18T00:33:33;1.90;91.10
21734;DHT22;11029;47.820;10.534;2023-11-18T00:36:19;1.90;90.90
21734;DHT22;11029;47.820;10.534;2023-11-18T00:39:05;1.90;90.90
21734;DHT22;11029;47.820;10.534;2023-11-18T00:41:51;1.90;90.70
21734;DHT22;11029;47.820;10.534;2023-11-18T00:44:37;1.90;90.70
21734;DHT22;11029;47.820;10.534;2023-11-18T00:47:23;1.90;90.60
21734;DHT22;11029;47.820;10.534;2023-11-18T00:50:09;1.90;90.40
21734;DHT22;11029;47.820;10.534;2023-11-18T00:52:54;1.90;90.80
21734;DHT22;11029;47.820;10.534;2023-11-18T00:55:40;1.90;90.50
21734;DHT22;11029;47.820;10.534;2023-11-18T00:58:26;2.00;90.70
21734;DHT22;11029;47.820;10.534;2023-11-18T01:01:12;2.00;90.30
21734;DHT22;11029;47.820;10.534;2023-11-18T01:03:58;2.00;90.10
21734;DHT22;11029;47.820;10.534;2023-11-18T01:06:44;2.00;90.10
21734;DHT22;11029;47.820;10.534;2023-11-18T01:09:30;2.00;90.00
21734;DHT22;11029;47.820;10.534;2023-11-18T01:12:21;1.90;90.00
21734;DHT22;11029;47.820;10.534;2023-11-18T01:15:07;1.90;90.20
21734;DHT22;11029;47.820;10.534;2023-11-18T01:17:55;1.90;90.50
21734;DHT22;11029;47.820;10.534;2023-11-18T01:20:41;1.90;90.40
21734;DHT22;11029;47.820;10.534;2023-11-18T01:23:26;2.00;90.40
21734;DHT22;11029;47.820;10.534;2023-11-18T01:26:12;2.00;90.40
21734;DHT22;11029;47.820;10.534;2023-11-18T01:28:58;1.90;90.30
21734;DHT22;11029;47.820;10.534;2023-11-18T01:31:45;2.00;90.40
21734;DHT22;11029;47.820;10.534;2023-11-18T01:34:37;2.00;90.40
21734;DHT22;11029;47.820;10.534;2023-11-18T01:37:25;1.90;90.20
21734;DHT22;11029;47.820;10.534;2023-11-18T01:40:11;2.00;90.70
21734;DHT22;11029;47.820;10.534;2023-11-18T01:42:58;2.00;90.50
21734;DHT22;11029;47.820;10.534;2023-11-18T01:45:43;2.00;90.60
21734;DHT22;11029;47.820;10.534;2023-11-18T01:48:29;2.00;90.60
21734;DHT22;11029;47.820;10.534;2023-11-18T01:51:16;2.00;90.30
21734;DHT22;11029;47.820;10.534;2023-11-18T01:54:05;2.10;90.70
21734;DHT22;11029;47.820;10.534;2023-11-18T01:56:53;2.10;90.40
21734;DHT22;11029;47.820;10.534;2023-11-18T01:59:39;2.10;89.80
21734;DHT22;11029;47.820;10.534;2023-11-18T02:02:26;2.10;90.30
21734;DHT22;11029;47.820;10.534;2023-11-18T02:05:11;2.10;90.40
21734;DHT22;11029;47.820;10.534;2023-11-18T02:07:59;2.10;90.40
21734;DHT22;11029;47.820;10.534;2023-11-18T02:10:48;2.10;90.50
21734;DHT22;11029;47.820;10.534;2023-11-18T02:13:43;2.10;90.50
21734;DHT22;11029;47.820;10.534;2023-11-18T02:16:32;2.10;90.70
21734;DHT22;11029;47.820;10.534;2023-11-18T02:19:24;2.10;90.70
21734;DHT22;11029;47.820;10.534;2023-11-18T02:22:10;2.10;90.70
21734;DHT22;11029;47.820;10.534;2023-11-18T02:24:56;2.10;90.60
21734;DHT22;11029;47.820;10.534;2023-11-18T02:27:43;2.00;90.90
21734;DHT22;11029;47.820;10.534;2023-11-18T02:30:34;2.10;91.10
21734;DHT22;11029;47.820;10.534;2023-11-18T02:33:36;2.10;91.00
21734;DHT22;11029;47.820;10.534;2023-11-18T02:36:31;2.10;91.00
21734;DHT22;11029;47.820;10.534;2023-11-18T02:39:32;2.10;90.80
21734;DHT22;11029;47.820;10.534;2023-11-18T02:42:25;2.10;90.50
21734;DHT22;11029;47.820;10.534;2023-11-18T02:45:13;2.00;90.60
21734;DHT22;11029;47.820;10.534;2023-11-18T02:48:06;2.00;90.40
21734;DHT22;11029;47.820;10.534;2023-11-18T02:50:53;2.00;90.00
21734;DHT22;11029;47.820;10.534;2023-11-18T02:53:38;1.90;90.40
21734;DHT22;11029;47.820;10.534;2023-11-18T02:56:25;2.00;90.50
21734;DHT22;11029;47.820;10.534;2023-11-18T02:59:12;2.00;90.60
21734;DHT22;11029;47.820;10.534;2023-11-18T03:01:58;2.00;90.40
21734;DHT22;11029;47.820;10.534;2023-11-18T03:04:47;2.00;90.30
21734;DHT22;11029;47.820;10.534;2023-11-18T03:07:32;2.00;90.60
21734;DHT22;11029;47.820;10.534;2023-11-18T03:10:21;2.00;90.70
21734;DHT22;11029;47.820;10.534;2023-11-18T03:13:07;2.10;91.20
21734;DHT22;11029;47.820;10.534;2023-11-18T03:15:53;2.20;91.10
21734;DHT22;11029;47.820;10.534;2023-11-18T03:18:40;2.20;91.00
21734;DHT22;11029;47.820;10.534;2023-11-18T03:21:26;2.30;90.80
21734;DHT22;11029;47.820;10.534;2023-11-18T03:24:12;2.30;90.90
21734;DHT22;11029;47.820;10.534;2023-11-18T03:26:57;2.40;91.00
21734;DHT22;11029;47.820;10.534;2023-11-18T03:29:43;2.30;90.20
21734;DHT22;11029;47.820;10.534;2023-11-18T03:32:31;2.40;90.30
21734;DHT22;11029;47.820;10.534;2023-11-18T03:35:17;2.30;90.00
21734;DHT22;11029;47.820;10.534;2023-11-18T03:38:03;2.30;90.20
21734;DHT22;11029;47.820;10.534;2023-11-18T03:40:49;2.30;90.50
21734;DHT22;11029;47.820;10.534;2023-11-18T03:43:37;2.30;90.00
21734;DHT22;11029;47.820;10.534;2023-11-18T03:46:23;2.20;89.80
21734;DHT22;11029;47.820;10.534;2023-11-18T03:49:09;2.20;90.50
21734;DHT22;11029;47.820;10.534;2023-11-18T03:51:55;2.20;90.60
21734;DHT22;11029;47.820;10.534;2023-11-18T03:54:40;2.20;90.80
21734;DHT22;11029;47.820;10.534;2023-11-18T03:57:27;2.20;90.30
21734;DHT22;11029;47.820;10.534;2023-11-18T04:00:15;2.20;90.60
21734;DHT22;11029;47.820;10.534;2023-11-18T04:03:01;2.20;90.80
21734;DHT22;11029;47.820;10.534;2023-11-18T04:05:47;2.20;91.00
21734;DHT22;11029;47.820;10.534;2023-11-18T04:08:32;2.30;90.70
21734;DHT22;11029;47.820;10.534;2023-11-18T04:11:19;2.30;90.50
21734;DHT22;11029;47.820;10.534;2023-11-18T04:14:05;2.30;90.00
21734;DHT22;11029;47.820;10.534;2023-11-18T04:16:50;2.30;90.20
21734;DHT22;11029;47.820;10.534;2023-11-18T04:19:36;2.40;89.90
21734;DHT22;11029;47.820;10.534;2023-11-18T04:22:24;2.30;89.40
21734;DHT22;11029;47.820;10.534;2023-11-18T04:25:10;2.30;89.20
21734;DHT22;11029;47.820;10.534;2023-11-18T04:27:56;2.20;89.40
21734;DHT22;11029;47.820;10.534;2023-11-18T04:30:42;2.10;89.50
21734;DHT22;11029;47.820;10.534;2023-11-18T04:33:29;2.10;90.10
21734;DHT22;11029;47.820;10.534;2023-11-18T04:36:14;2.10;90.60
21734;DHT22;11029;47.820;10.534;2023-11-18T04:39:01;2.10;89.90
21734;DHT22;11029;47.820;10.534;2023-11-18T04:41:48;2.00;89.90
21734;DHT22;11029;47.820;10.534;2023-11-18T04:44:34;2.10;90.50
21734;DHT22;11029;47.820;10.534;2023-11-18T04:47:20;2.10;89.90
21734;DHT22;11029;47.820;10.534;2023-11-18T04:50:06;2.10;90.20
21734;DHT22;11029;47.820;10.534;2023-11-18T04:52:53;2.10;90.20
21734;DHT22;11029;47.820;10.534;2023-11-18T04:55:39;2.10;90.00
21734;DHT22;11029;47.820;10.534;2023-11-18T04:58:25;2.10;89.80
21734;DHT22;11029;47.820;10.534;2023-11-18T05:01:10;2.10;90.20
21734;DHT22;11029;47.820;10.534;2023-11-18T05:03:58;2.00;90.10
21734;DHT22;11029;47.820;10.534;2023-11-18T05:06:44;2.00;89.80
21734;DHT22;11029;47.820;10.534;2023-11-18T05:09:30;2.00;90.20
21734;DHT22;11029;47.820;10.534;2023-11-18T05:12:16;2.00;90.20
21734;DHT22;11029;47.820;10.534;2023-11-18T05:15:02;2.00;90.00
21734;DHT22;11029;47.820;10.534;2023-11-18T05:17:53;2.00;90.40
21734;DHT22;11029;47.820;10.534;2023-11-18T05:20:39;2.00;90.10
21734;DHT22;11029;47.820;10.534;2023-11-18T05:23:26;2.00;90.20
21734;DHT22;11029;47.820;10.534;2023-11-18T05:26:11;2.00;90.10
21734;DHT22;11029;47.820;10.534;2023-11-18T05:28:57;2.10;90.70
21734;DHT22;11029;47.820;10.534;2023-11-18T05:31:43;2.10;90.20
21734;DHT22;11029;47.820;10.534;2023-11-18T05:34:29;2.10;90.40
21734;DHT22;11029;47.820;10.534;2023-11-18T05:37:14;2.10;90.30
21734;DHT22;11029;47.820;10.534;2023-11-18T05:40:04;2.10;89.90
21734;DHT22;11029;47.820;10.534;2023-11-18T05:42:54;2.20;90.00
21734;DHT22;11029;47.820;10.534;2023-11-18T05:45:40;2.10;89.40
21734;DHT22;11029;47.820;10.534;2023-11-18T05:48:47;2.10;89.50
21734;DHT22;11029;47.820;10.534;2023-11-18T05:51:33;2.10;90.10
21734;DHT22;11029;47.820;10.534;2023-11-18T05:54:19;2.10;89.60
21734;DHT22;11029;47.820;10.534;2023-11-18T05:57:04;2.00;89.80
21734;DHT22;11029;47.820;10.534;2023-11-18T05:59:50;2.00;89.60
21734;DHT22;11029;47.820;10.534;2023-11-18T06:02:35;2.00;89.20
21734;DHT22;11029;47.820;10.534;2023-11-18T06:05:22;1.90;89.40
21734;DHT22;11029;47.820;10.534;2023-11-18T06:08:11;2.00;89.60
21734;DHT22;11029;47.820;10.534;2023-11-18T06:10:58;1.90;89.60
21734;DHT22;11029;47.820;10.534;2023-11-18T06:13:51;1.90;89.30
21734;DHT22;11029;47.820;10.534;2023-11-18T06:16:38;1.90;89.50
21734;DHT22;11029;47.820;10.534;2023-11-18T06:19:27;1.90;89.80
21734;DHT22;11029;47.820;10.534;2023-11-18T06:22:12;1.90;89.90
21734;DHT22;11029;47.820;10.534;2023-11-18T06:24:58;2.00;89.70
21734;DHT22;11029;47.820;10.534;2023-11-18T06:27:44;2.00;89.80
21734;DHT22;11029;47.820;10.534;2023-11-18T06:30:32;2.00;89.70
21734;DHT22;11029;47.820;10.534;2023-11-18T06:33:18;2.00;89.70
21734;DHT22;11029;47.820;10.534;2023-11-18T06:36:17;2.00;89.80
21734;DHT22;11029;47.820;10.534;2023-11-18T06:39:04;2.00;89.60
21734;DHT22;11029;47.820;10.534;2023-11-18T06:41:52;2.10;89.30
21734;DHT22;11029;47.820;10.534;2023-11-18T06:44:38;2.10;89.50
21734;DHT22;11029;47.820;10.534;2023-11-18T06:47:24;2.10;89.50
21734;DHT22;11029;47.820;10.534;2023-11-18T06:50:10;2.20;89.20
21734;DHT22;11029;47.820;10.534;2023-11-18T06:52:59;2.20;89.00
21734;DHT22;11029;47.820;10.534;2023-11-18T06:55:45;2.30;88.90
21734;DHT22;11029;47.820;10.534;2023-11-18T06:58:31;2.30;89.10
21734;DHT22;11029;47.820;10.534;2023-11-18T07:01:18;2.30;88.40
21734;DHT22;11029;47.820;10.534;2023-11-18T07:04:04;2.20;88.20
21734;DHT22;11029;47.820;10.534;2023-11-18T07:06:54;2.30;88.60
21734;DHT22;11029;47.820;10.534;2023-11-18T07:09:39;2.20;88.90
21734;DHT22;11029;47.820;10.534;2023-11-18T07:12:25;2.20;88.50
21734;DHT22;11029;47.820;10.534;2023-11-18T07:15:10;2.20;89.10
21734;DHT22;11029;47.820;10.534;2023-11-18T07:17:56;2.30;88.90
21734;DHT22;11029;47.820;10.534;2023-11-18T07:20:42;2.40;88.90
21734;DHT22;11029;47.820;10.534;2023-11-18T07:23:27;2.50;88.90
21734;DHT22;11029;47.820;10.534;2023-11-18T07:26:13;2.50;88.50
21734;DHT22;11029;47.820;10.534;2023-11-18T07:29:01;2.50;87.90
21734;DHT22;11029;47.820;10.534;2023-11-18T07:31:46;2.50;87.80
21734;DHT22;11029;47.820;10.534;2023-11-18T07:34:32;2.60;87.70
21734;DHT22;11029;47.820;10.534;2023-11-18T07:37:18;2.60;87.30
21734;DHT22;11029;47.820;10.534;2023-11-18T07:40:04;2.70;87.40
21734;DHT22;11029;47.820;10.534;2023-11-18T07:42:51;2.80;87.30
21734;DHT22;11029;47.820;10.534;2023-11-18T07:45:37;2.90;87.00
21734;DHT22;11029;47.820;10.534;2023-11-18T07:48:23;2.90;86.90
21734;DHT22;11029;47.820;10.534;2023-11-18T07:51:09;3.00;86.10
21734;DHT22;11029;47.820;10.534;2023-11-18T07:53:56;3.10;85.60
21734;DHT22;11029;47.820;10.534;2023-11-18T07:56:42;3.20;85.40
21734;DHT22;11029;47.820;10.534;2023-11-18T07:59:28;3.20;85.30
21734;DHT22;11029;47.820;10.534;2023-11-18T08:02:14;3.30;85.20
21734;DHT22;11029;47.820;10.534;2023-11-18T08:05:01;3.30;84.60
21734;DHT22;11029;47.820;10.534;2023-11-18T08:07:48;3.40;84.50
21734;DHT22;11029;47.820;10.534;2023-11-18T08:10:35;3.50;84.60
21734;DHT22;11029;47.820;10.534;2023-11-18T08:13:24;3.50;84.20
21734;DHT22;11029;47.820;10.534;2023-11-18T08:16:09;3.50;82.80
21734;DHT22;11029;47.820;10.534;2023-11-18T08:18:57;3.50;83.70
21734;DHT22;11029;47.820;10.534;2023-11-18T08:21:42;3.50;82.30
21734;DHT22;11029;47.820;10.534;2023-11-18T08:24:27;3.60;83.00
21734;DHT22;11029;47.820;10.534;2023-11-18T08:27:14;3.70;81.50
21734;DHT22;11029;47.820;10.534;2023-11-18T08:30:00;3.80;81.30
21734;DHT22;11029;47.820;10.534;2023-11-18T08:32:45;3.80;81.50
21734;DHT22;11029;47.820;10.534;2023-11-18T08:35:32;3.90;79.80
21734;DHT22;11029;47.820;10.534;2023-11-18T08:38:17;3.80;79.90
21734;DHT22;11029;47.820;10.534;2023-11-18T08:41:03;3.90;80.50
21734;DHT22;11029;47.820;10.534;2023-11-18T08:43:50;4.00;79.90
21734;DHT22;11029;47.820;10.534;2023-11-18T08:46:37;3.90;80.00
21734;DHT22;11029;47.820;10.534;2023-11-18T08:49:22;3.90;79.00
21734;DHT22;11029;47.820;10.534;2023-11-18T08:52:08;3.90;79.40
21734;DHT22;11029;47.820;10.534;2023-11-18T08:54:57;3.80;80.00
21734;DHT22;11029;47.820;10.534;2023-11-18T08:57:58;3.80;79.90
21734;DHT22;11029;47.820;10.534;2023-11-18T09:00:49;3.80;78.80
21734;DHT22;11029;47.820;10.534;2023-11-18T09:03:50;3.70;79.10
21734;DHT22;11029;47.820;10.534;2023-11-18T09:06:38;3.90;79.00
21734;DHT22;11029;47.820;10.534;2023-11-18T09:09:24;4.10;78.70
21734;DHT22;11029;47.820;10.534;2023-11-18T09:12:13;4.00;78.40
21734;DHT22;11029;47.820;10.534;2023-11-18T09:15:00;4.10;79.00
21734;DHT22;11029;47.820;10.534;2023-11-18T09:17:49;4.20;77.80
21734;DHT22;11029;47.820;10.534;2023-11-18T09:20:35;4.10;78.30
21734;DHT22;11029;47.820;10.534;2023-11-18T09:23:22;4.10;78.40
21734;DHT22;11029;47.820;10.534;2023-11-18T09:26:10;4.20;77.50
21734;DHT22;11029;47.820;10.534;2023-11-18T09:28:57;4.30;77.80
21734;DHT22;11029;47.820;10.534;2023-11-18T09:31:50;4.40;77.90
21734;DHT22;11029;47.820;10.534;2023-11-18T09:34:40;4.40;77.30
21734;DHT22;11029;47.820;10.534;2023-11-18T09:37:25;4.40;76.80
21734;DHT22;11029;47.820;10.534;2023-11-18T09:40:16;4.50;77.10
21734;DHT22;11029;47.820;10.534;2023-11-18T09:43:03;4.60;77.70
21734;DHT22;11029;47.820;10.534;2023-11-18T09:45:56;4.70;77.50
21734;DHT22;11029;47.820;10.534;2023-11-18T09:48:46;4.80;78.00
21734;DHT22;11029;47.820;10.534;2023-11-18T09:51:39;4.90;75.30
21734;DHT22;11029;47.820;10.534;2023-11-18T09:54:32;4.90;75.80
21734;DHT22;11029;47.820;10.534;2023-11-18T09:57:40;4.90;74.40
21734;DHT22;11029;47.820;10.534;2023-11-18T10:00:30;4.80;74.80
21734;DHT22;11029;47.820;10.534;2023-11-18T10:03:20;4.70;76.50
21734;DHT22;11029;47.820;10.534;2023-11-18T10:06:08;4.80;75.80
21734;DHT22;11029;47.820;10.534;2023-11-18T10:08:55;4.90;76.20
21734;DHT22;11029;47.820;10.534;2023-11-18T10:11:47;4.80;74.10
21734;DHT22;11029;47.820;10.534;2023-11-18T10:14:34;4.70;74.00
21734;DHT22;11029;47.820;10.534;2023-11-18T10:17:20;4.50;75.00
21734;DHT22;11029;47.820;10.534;2023-11-18T10:20:10;4.60;75.40
21734;DHT22;11029;47.820;10.534;2023-11-18T10:23:09;4.60;74.20
21734;DHT22;11029;47.820;10.534;2023-11-18T10:25:58;4.80;74.70
21734;DHT22;11029;47.820;10.534;2023-11-18T10:28:45;4.90;75.80
21734;DHT22;11029;47.820;10.534;2023-11-18T10:31:34;4.80;75.10
21734;DHT22;11029;47.820;10.534;2023-11-18T10:34:22;4.90;75.20
21734;DHT22;11029;47.820;10.534;2023-11-18T10:37:10;5.00;73.40
21734;DHT22;11029;47.820;10.534;2023-11-18T10:39:56;5.20;73.30
21734;DHT22;11029;47.820;10.534;2023-11-18T10:42:42;5.40;73.40
21734;DHT22;11029;47.820;10.534;2023-11-18T10:45:33;5.50;71.60
21734;DHT22;11029;47.820;10.534;2023-11-18T10:48:19;5.40;71.90
21734;DHT22;11029;47.820;10.534;2023-11-18T10:51:06;5.50;73.30
21734;DHT22;11029;47.820;10.534;2023-11-18T10:53:53;5.60;72.50
21734;DHT22;11029;47.820;10.534;2023-11-18T10:56:51;5.70;70.40
21734;DHT22;11029;47.820;10.534;2023-11-18T11:00:05;5.80;70.90
21734;DHT22;11029;47.820;10.534;2023-11-18T11:03:04;5.80;70.30
21734;DHT22;11029;47.820;10.534;2023-11-18T11:05:50;6.10;70.40
21734;DHT22;11029;47.820;10.534;2023-11-18T11:08:37;6.40;69.70
21734;DHT22;11029;47.820;10.534;2023-11-18T11:11:33;6.60;68.10
21734;DHT22;11029;47.820;10.534;2023-11-18T11:14:26;6.80;66.60
21734;DHT22;11029;47.820;10.534;2023-11-18T11:17:20;6.90;66.60
21734;DHT22;11029;47.820;10.534;2023-11-18T11:20:21;7.00;65.70
21734;DHT22;11029;47.820;10.534;2023-11-18T11:23:27;7.00;65.80
21734;DHT22;11029;47.820;10.534;2023-11-18T11:29:41;7.00;66.10
21734;DHT22;11029;47.820;10.534;2023-11-18T11:32:35;6.70;66.70
21734;DHT22;11029;47.820;10.534;2023-11-18T11:35:30;6.60;66.00
21734;DHT22;11029;47.820;10.534;2023-11-18T11:38:19;6.50;67.20
21734;DHT22;11029;47.820;10.534;2023-11-18T11:41:05;6.40;67.60
21734;DHT22;11029;47.820;10.534;2023-11-18T11:43:53;6.30;67.80
21734;DHT22;11029;47.820;10.534;2023-11-18T11:46:43;6.20;67.40
21734;DHT22;11029;47.820;10.534;2023-11-18T11:49:39;6.20;66.90
21734;DHT22;11029;47.820;10.534;2023-11-18T11:52:33;6.10;68.30
21734;DHT22;11029;47.820;10.534;2023-11-18T11:55:31;6.20;68.30
21734;DHT22;11029;47.820;10.534;2023-11-18T11:58:31;6.00;68.80
21734;DHT22;11029;47.820;10.534;2023-11-18T12:01:37;6.00;68.30
21734;DHT22;11029;47.820;10.534;2023-11-18T12:04:23;5.90;68.10
21734;DHT22;11029;47.820;10.534;2023-11-18T12:07:15;5.90;68.40
21734;DHT22;11029;47.820;10.534;2023-11-18T12:10:08;5.90;69.00
21734;DHT22;11029;47.820;10.534;2023-11-18T12:13:09;5.90;68.60
21734;DHT22;11029;47.820;10.534;2023-11-18T12:16:02;5.90;68.10
21734;DHT22;11029;47.820;10.534;2023-11-18T12:23:03;5.90;68.40
21734;DHT22;11029;47.820;10.534;2023-11-18T12:25:59;5.90;69.40
21734;DHT22;11029;47.820;10.534;2023-11-18T12:28:44;5.90;67.90
21734;DHT22;11029;47.820;10.534;2023-11-18T12:31:40;5.70;69.20
21734;DHT22;11029;47.820;10.534;2023-11-18T12:34:51;5.80;70.00
21734;DHT22;11029;47.820;10.534;2023-11-18T12:40:53;5.80;69.90
21734;DHT22;11029;47.820;10.534;2023-11-18T12:43:47;5.80;68.90
21734;DHT22;11029;47.820;10.534;2023-11-18T12:50:09;5.80;68.60
21734;DHT22;11029;47.820;10.534;2023-11-18T12:53:02;5.80;69.00
21734;DHT22;11029;47.820;10.534;2023-11-18T12:55:48;5.80;68.90
21734;DHT22;11029;47.820;10.534;2023-11-18T12:58:34;5.90;69.10
21734;DHT22;11029;47.820;10.534;2023-11-18T13:01:20;5.90;68.40
21734;DHT22;11029;47.820;10.534;2023-11-18T13:04:06;5.90;68.10
21734;DHT22;11029;47.820;10.534;2023-11-18T13:06:51;5.90;68.70
21734;DHT22;11029;47.820;10.534;2023-11-18T13:09:38;5.80;69.00
21734;DHT22;11029;47.820;10.534;2023-11-18T13:12:26;5.90;69.50
21734;DHT22;11029;47.820;10.534;2023-11-18T13:15:13;5.80;68.90
21734;DHT22;11029;47.820;10.534;2023-11-18T13:18:03;5.60;68.70
21734;DHT22;11029;47.820;10.534;2023-11-18T13:20:56;5.40;70.40
21734;DHT22;11029;47.820;10.534;2023-11-18T13:23:51;5.40;70.00
21734;DHT22;11029;47.820;10.534;2023-11-18T13:26:38;5.40;71.00
21734;DHT22;11029;47.820;10.534;2023-11-18T13:29:24;5.50;70.90
21734;DHT22;11029;47.820;10.534;2023-11-18T13:32:10;5.50;70.70
21734;DHT22;11029;47.820;10.534;2023-11-18T13:34:57;5.50;71.20
21734;DHT22;11029;47.820;10.534;2023-11-18T13:37:42;5.50;71.00
21734;DHT22;11029;47.820;10.534;2023-11-18T13:40:42;5.60;70.70
21734;DHT22;11029;47.820;10.534;2023-11-18T13:43:40;5.60;70.60
21734;DHT22;11029;47.820;10.534;2023-11-18T13:46:27;5.60;69.60
21734;DHT22;11029;47.820;10.534;2023-11-18T13:49:13;5.70;70.80
21734;DHT22;11029;47.820;10.534;2023-11-18T13:51:59;5.70;70.90
21734;DHT22;11029;47.820;10.534;2023-11-18T13:54:47;5.70;71.40
21734;DHT22;11029;47.820;10.534;2023-11-18T13:57:33;5.70;71.80
21734;DHT22;11029;47.820;10.534;2023-11-18T14:00:22;5.80;71.00
21734;DHT22;11029;47.820;10.534;2023-11-18T14:03:09;5.80;70.50
21734;DHT22;11029;47.820;10.534;2023-11-18T14:06:00;5.80;71.30
21734;DHT22;11029;47.820;10.534;2023-11-18T14:08:48;5.80;71.60
21734;DHT22;11029;47.820;10.534;2023-11-18T14:11:35;5.80;72.30
21734;DHT22;11029;47.820;10.534;2023-11-18T14:14:24;5.80;71.80
21734;DHT22;11029;47.820;10.534;2023-11-18T14:17:10;5.80;72.50
21734;DHT22;11029;47.820;10.534;2023-11-18T14:19:56;5.80;71.80
21734;DHT22;11029;47.820;10.534;2023-11-18T14:22:43;5.70;70.60
21734;DHT22;11029;47.820;10.534;2023-11-18T14:25:29;5.60;70.20
21734;DHT22;11029;47.820;10.534;2023-11-18T14:28:18;5.50;70.80
21734;DHT22;11029;47.820;10.534;2023-11-18T14:31:08;5.40;71.50
21734;DHT22;11029;47.820;10.534;2023-11-18T14:33:55;5.30;70.90
21734;DHT22;11029;47.820;10.534;2023-11-18T14:36:43;5.30;71.80
21734;DHT22;11029;47.820;10.534;2023-11-18T14:39:29;5.20;72.00
21734;DHT22;11029;47.820;10.534;2023-11-18T14:42:15;5.20;72.80
21734;DHT22;11029;47.820;10.534;2023-11-18T14:45:00;5.10;73.10
21734;DHT22;11029;47.820;10.534;2023-11-18T14:47:47;5.10;73.40
21734;DHT22;11029;47.820;10.534;2023-11-18T14:50:33;5.10;73.10
21734;DHT22;11029;47.820;10.534;2023-11-18T14:53:20;5.00;73.20
21734;DHT22;11029;47.820;10.534;2023-11-18T14:56:06;4.90;73.30
21734;DHT22;11029;47.820;10.534;2023-11-18T14:58:52;4.90;73.80
21734;DHT22;11029;47.820;10.534;2023-11-18T15:01:37;4.90;74.00
21734;DHT22;11029;47.820;10.534;2023-11-18T15:04:23;4.90;74.00
21734;DHT22;11029;47.820;10.534;2023-11-18T15:07:09;4.90;73.70
21734;DHT22;11029;47.820;10.534;2023-11-18T15:09:54;4.90;74.20
21734;DHT22;11029;47.820;10.534;2023-11-18T15:12:40;4.90;74.50
21734;DHT22;11029;47.820;10.534;2023-11-18T15:15:28;4.90;74.90
21734;DHT22;11029;47.820;10.534;2023-11-18T15:18:17;4.80;74.70
21734;DHT22;11029;47.820;10.534;2023-11-18T15:21:03;4.90;74.30
21734;DHT22;11029;47.820;10.534;2023-11-18T15:23:49;4.80;74.40
21734;DHT22;11029;47.820;10.534;2023-11-18T15:26:35;4.80;73.90
21734;DHT22;11029;47.820;10.534;2023-11-18T15:29:21;4.80;73.60
21734;DHT22;11029;47.820;10.534;2023-11-18T15:32:13;4.70;74.60
21734;DHT22;11029;47.820;10.534;2023-11-18T15:34:59;4.60;75.30
21734;DHT22;11029;47.820;10.534;2023-11-18T15:37:44;4.60;76.00
21734;DHT22;11029;47.820;10.534;2023-11-18T15:40:32;4.60;75.50
21734;DHT22;11029;47.820;10.534;2023-11-18T15:43:18;4.50;75.40
21734;DHT22;11029;47.820;10.534;2023-11-18T15:46:04;4.50;76.30
21734;DHT22;11029;47.820;10.534;2023-11-18T15:48:51;4.50;75.40
21734;DHT22;11029;47.820;10.534;2023-11-18T15:51:37;4.30;76.50
21734;DHT22;11029;47.820;10.534;2023-11-18T15:54:25;4.20;77.10
21734;DHT22;11029;47.820;10.534;2023-11-18T15:57:11;4.20;77.70
21734;DHT22;11029;47.820;10.534;2023-11-18T15:59:56;4.20;77.10
21734;DHT22;11029;47.820;10.534;2023-11-18T16:02:43;4.10;77.00
21734;DHT22;11029;47.820;10.534;2023-11-18T16:05:30;4.20;77.30
21734;DHT22;11029;47.820;10.534;2023-11-18T16:08:20;4.20;77.80
21734;DHT22;11029;47.820;10.534;2023-11-18T16:11:06;4.20;77.20
21734;DHT22;11029;47.820;10.534;2023-11-18T16:13:51;4.30;77.70
21734;DHT22;11029;47.820;10.534;2023-11-18T16:16:37;4.40;78.40
21734;DHT22;11029;47.820;10.534;2023-11-18T16:19:23;4.40;79.00
21734;DHT22;11029;47.820;10.534;2023-11-18T16:22:09;4.50;77.20
21734;DHT22;11029;47.820;10.534;2023-11-18T16:24:54;4.50;76.70
21734;DHT22;11029;47.820;10.534;2023-11-18T16:27:40;4.50;76.40
21734;DHT22;11029;47.820;10.534;2023-11-18T16:30:26;4.50;76.60
21734;DHT22;11029;47.820;10.534;2023-11-18T16:33:14;4.50;76.20
21734;DHT22;11029;47.820;10.534;2023-11-18T16:36:00;4.40;77.30
21734;DHT22;11029;47.820;10.534;2023-11-18T16:38:48;4.30;78.00
21734;DHT22;11029;47.820;10.534;2023-11-18T16:41:33;4.30;77.50
21734;DHT22;11029;47.820;10.534;2023-11-18T16:44:29;4.30;78.20
21734;DHT22;11029;47.820;10.534;2023-11-18T16:47:15;4.30;77.70
21734;DHT22;11029;47.820;10.534;2023-11-18T16:50:01;4.30;77.20
21734;DHT22;11029;47.820;10.534;2023-11-18T16:52:48;4.30;76.40
21734;DHT22;11029;47.820;10.534;2023-11-18T16:55:35;4.30;76.40
21734;DHT22;11029;47.820;10.534;2023-11-18T16:58:21;4.30;71.60
21734;DHT22;11029;47.820;10.534;2023-11-18T17:01:06;4.40;73.80
21734;DHT22;11029;47.820;10.534;2023-11-18T17:03:54;4.30;70.50
21734;DHT22;11029;47.820;10.534;2023-11-18T17:06:40;4.30;69.90
21734;DHT22;11029;47.820;10.534;2023-11-18T17:09:26;4.30;70.00
21734;DHT22;11029;47.820;10.534;2023-11-18T17:12:12;4.30;70.40
21734;DHT22;11029;47.820;10.534;2023-11-18T17:14:57;4.30;71.10
21734;DHT22;11029;47.820;10.534;2023-11-18T17:17:44;4.20;70.60
21734;DHT22;11029;47.820;10.534;2023-11-18T17:20:31;4.30;71.20
21734;DHT22;11029;47.820;10.534;2023-11-18T17:23:17;4.30;71.40
21734;DHT22;11029;47.820;10.534;2023-11-18T17:26:03;4.30;71.80
21734;DHT22;11029;47.820;10.534;2023-11-18T17:28:51;4.30;72.10
21734;DHT22;11029;47.820;10.534;2023-11-18T17:31:36;4.30;72.50
21734;DHT22;11029;47.820;10.534;2023-11-18T17:34:26;4.20;73.30
21734;DHT22;11029;47.820;10.534;2023-11-18T17:37:13;4.20;73.70
21734;DHT22;11029;47.820;10.534;2023-11-18T17:39:59;4.20;74.40
21734;DHT22;11029;47.820;10.534;2023-11-18T17:42:44;4.30;74.60
21734;DHT22;11029;47.820;10.534;2023-11-18T17:45:30;4.30;75.00
21734;DHT22;11029;47.820;10.534;2023-11-18T17:48:16;4.30;74.90
21734;DHT22;11029;47.820;10.534;2023-11-18T17:51:02;4.30;73.80
21734;DHT22;11029;47.820;10.534;2023-11-18T17:53:47;4.30;74.10